Time;durP1;ratioP1;P1;durP2;ratioP2;P2;SDS_P1;SDS_P2;PMS_P1;PMS_P2;Temp;Humidity;BMP_temperature;BMP_pressure;BME280_temperature;BME280_humidity;BME280_pressure;Samples;Min_cycle;Max_cycle;Signal;HPM_P1;HPM_P2
2022/05/25 00:00:18;;;;;;;;;;;;;;;-142.75;100.00;76960.06;5090990;28;20440;-69
2022/05/25 00:02:43;;;;;;;;;;;;;;;-142.75;100.00;76967.94;5090771;28;19916;-69
2022/05/25 00:05:09;;;;;;;;;;;;;;;-142.75;100.00;76964.00;5089793;28;19916;-69
2022/05/25 00:07:35;;;;;;;;;;;;;;;-142.75;100.00;76965.97;5090832;28;19920;-70
2022/05/25 00:10:00;;;;;;;;;;;;;;;-142.75;100.00;76962.03;5090753;28;20366;-69
2022/05/25 00:12:25;;;;;;;;;;;;;;;-142.75;100.00;76967.94;5090617;28;20014;-69
2022/05/25 00:14:50;;;;;;;;;;;;;;;-142.75;100.00;76965.97;5090060;28;19916;-69
2022/05/25 00:17:16;;;;;;;;;;;;;;;-142.75;100.00;76969.91;5089450;28;19920;-69
2022/05/25 00:20:00;;;;;;;;;;;;;;;-142.75;100.00;76971.88;5090461;28;19916;-70
2022/05/25 00:22:45;;;;;;;;;;;;;;;-142.75;100.00;76969.91;5091210;28;19930;-69
2022/05/25 00:25:13;;;;;;;;;;;;;;;-142.75;100.00;76981.72;5090049;28;19931;-70
2022/05/25 00:27:39;;;;;;;;;;;;;;;-142.75;100.00;76979.75;5090654;28;20380;-70
2022/05/25 00:30:04;;;;;;;;;;;;;;;-142.75;100.00;76983.69;5090157;28;19920;-69
2022/05/25 00:32:29;;;;;;;;;;;;;;;-142.75;100.00;76989.59;5090510;28;20333;-69
2022/05/25 00:34:54;;;;;;;;;;;;;;;-142.75;100.00;76991.56;5070243;28;19962;-69
2022/05/25 00:37:20;;;;;;;;;;;;;;;-142.75;100.00;76995.50;5070549;28;20374;-69
2022/05/25 00:39:45;;;;;;;;;;;;;;;-142.75;100.00;76997.47;5068855;28;19966;-70
2022/05/25 00:42:10;;;;;;;;;;;;;;;-142.75;100.00;76995.50;5070479;28;19924;-69
2022/05/25 00:44:35;;;;;;;;;;;;;;;-142.75;100.00;76993.53;5080881;28;19920;-70
2022/05/25 00:47:01;;;;;;;;;;;;;;;-142.75;100.00;76993.53;5086608;28;20358;-70
2022/05/25 00:49:28;;;;;;;;;;;;;;;-142.75;100.00;76997.47;5074415;28;19927;-70
2022/05/25 00:51:55;;;;;;;;;;;;;;;-142.75;100.00;77003.38;5079907;28;19920;-70
2022/05/25 00:54:39;;;;;;;;;;;;;;;-142.75;100.00;77015.19;5079197;28;19920;-69
2022/05/25 00:57:07;;;;;;;;;;;;;;;-142.75;100.00;77013.22;5070456;28;19922;-69
2022/05/25 00:59:34;;;;;;;;;;;;;;;-142.75;100.00;77017.16;5074073;28;19935;-69
2022/05/25 01:02:00;;;;;;;;;;;;;;;-142.75;100.00;77023.06;5082616;28;19916;-70
2022/05/25 01:04:26;;;;;;;;;;;;;;;-142.75;100.00;77023.06;5083163;28;19916;-70
2022/05/25 01:07:09;;;;;;;;;;;;;;;-142.75;100.00;77030.94;5070174;28;20428;-70
2022/05/25 01:09:35;;;;;;;;;;;;;;;-142.75;100.00;77030.94;5077693;28;19916;-70
2022/05/25 01:12:13;;;;;;;;;;;;;;;-142.75;100.00;77032.91;5069599;28;19974;-69
2022/05/25 01:14:47;;;;;;;;;;;;;;;-142.75;100.00;77027.00;5080570;28;20017;-69
2022/05/25 01:17:18;;;;;;;;;;;;;;;-142.75;100.00;77028.97;5090276;28;19916;-70
2022/05/25 01:19:54;;;;;;;;;;;;;;;-142.75;100.00;77038.81;5088565;28;20385;-70
2022/05/25 01:22:35;;;;;;;;;;;;;;;-142.75;100.00;77034.88;5090399;28;20328;-70
2022/05/25 01:25:07;;;;;;;;;;;;;;;-142.75;100.00;77042.75;5076449;28;19916;-70
2022/05/25 01:27:52;;;;;;;;;;;;;;;-142.75;100.00;77046.69;5073504;28;20031;-70
2022/05/25 01:30:21;;;;;;;;;;;;;;;-142.75;100.00;77044.72;5090780;28;20371;-69
2022/05/25 01:32:52;;;;;;;;;;;;;;;-142.75;100.00;77042.75;5093450;28;19931;-70
2022/05/25 01:35:20;;;;;;;;;;;;;;;-142.75;100.00;77046.69;5089533;28;19969;-69
2022/05/25 01:37:51;;;;;;;;;;;;;;;-142.75;100.00;77048.66;5093696;28;20411;-69
2022/05/25 01:40:27;;;;;;;;;;;;;;;-142.75;100.00;77048.66;5093629;28;20274;-69
2022/05/25 01:42:57;;;;;;;;;;;;;;;-142.75;100.00;77050.63;5092168;28;19916;-69
2022/05/25 01:45:23;;;;;;;;;;;;;;;-142.75;100.00;77054.56;5081818;28;19927;-69
2022/05/25 01:47:49;;;;;;;;;;;;;;;-142.75;100.00;77054.56;5085341;28;19969;-69
2022/05/25 01:50:29;;;;;;;;;;;;;;;-142.75;100.00;77062.44;5091789;28;20270;-69
2022/05/25 01:52:56;;;;;;;;;;;;;;;-142.75;100.00;77070.31;5082792;28;20003;-69
2022/05/25 01:55:24;;;;;;;;;;;;;;;-142.75;100.00;77068.34;5091087;28;20011;-69
2022/05/25 01:57:52;;;;;;;;;;;;;;;-142.75;100.00;77074.25;5092958;28;19924;-69
2022/05/25 02:00:28;;;;;;;;;;;;;;;-142.75;100.00;77072.28;5091994;28;19920;-69
2022/05/25 02:05:39;;;;;;;;;;;;;;;-142.75;100.00;77074.25;5093344;28;19926;-69
2022/05/25 02:08:10;;;;;;;;;;;;;;;-142.75;100.00;77070.31;5092737;28;19969;-67
2022/05/25 02:10:52;;;;;;;;;;;;;;;-142.75;100.00;77086.06;5090151;28;19920;-69
2022/05/25 02:13:39;;;;;;;;;;;;;;;-142.75;100.00;77088.03;5092921;28;19920;-69
2022/05/25 02:16:20;;;;;;;;;;;;;;;-142.75;100.00;77088.03;5091869;28;19947;-70
2022/05/25 02:18:48;;;;;;;;;;;;;;;-142.75;100.00;77088.03;5092561;28;19954;-69
2022/05/25 02:21:39;;;;;;;;;;;;;;;-142.75;100.00;77080.16;5092967;28;19922;-70
2022/05/25 02:24:10;;;;;;;;;;;;;;;-142.75;100.00;77093.94;5090054;28;19923;-70
2022/05/25 02:26:42;;;;;;;;;;;;;;;-142.75;100.00;77090.00;5092863;28;20381;-69
2022/05/25 02:29:10;;;;;;;;;;;;;;;-142.75;100.00;77105.75;5090940;28;19920;-70
2022/05/25 02:31:40;;;;;;;;;;;;;;;-142.75;100.00;77105.75;5092817;28;19916;-69
2022/05/25 02:34:08;;;;;;;;;;;;;;;-142.75;100.00;77101.81;5092782;28;19916;-69
2022/05/25 02:36:34;;;;;;;;;;;;;;;-142.75;100.00;77103.78;5092305;28;19916;-70
2022/05/25 02:39:03;;;;;;;;;;;;;;;-142.75;100.00;77107.72;5091851;28;20416;-70
2022/05/25 02:41:30;;;;;;;;;;;;;;;-142.75;100.00;77101.81;5091145;28;20304;-70
2022/05/25 02:43:55;;;;;;;;;;;;;;;-142.75;100.00;77097.88;5092343;28;20064;-69
2022/05/25 02:46:21;;;;;;;;;;;;;;;-142.75;100.00;77103.78;5092040;28;19916;-69
2022/05/25 02:48:46;;;;;;;;;;;;;;;-142.75;100.00;77101.81;5092073;28;19928;-69
2022/05/25 02:51:11;;;;;;;;;;;;;;;-142.75;100.00;77109.69;5092342;28;19920;-69
2022/05/25 02:53:36;;;;;;;;;;;;;;;-142.75;100.00;77111.66;5092673;28;20057;-70
2022/05/25 02:56:02;;;;;;;;;;;;;;;-142.75;100.00;77107.72;5091172;28;19916;-69
2022/05/25 02:58:27;;;;;;;;;;;;;;;-142.75;100.00;77109.69;5091925;28;20434;-70
2022/05/25 03:00:53;;;;;;;;;;;;;;;-142.75;100.00;77115.59;5092389;28;19943;-69
2022/05/25 03:03:19;;;;;;;;;;;;;;;-142.75;100.00;77109.69;5091179;28;19915;-70
2022/05/25 03:05:44;;;;;;;;;;;;;;;-142.75;100.00;77109.69;5070608;28;19978;-69
2022/05/25 03:08:09;;;;;;;;;;;;;;;-142.75;100.00;77111.66;5071411;28;19975;-69
2022/05/25 03:10:34;;;;;;;;;;;;;;;-142.75;100.00;77113.63;5076041;28;19920;-70
2022/05/25 03:12:59;;;;;;;;;;;;;;;-142.75;100.00;77123.47;5071504;28;19956;-70
2022/05/25 03:15:25;;;;;;;;;;;;;;;-142.75;100.00;77133.31;5070149;28;19938;-70
2022/05/25 03:17:51;;;;;;;;;;;;;;;-142.75;100.00;77143.16;5071327;28;20390;-68
2022/05/25 03:20:16;;;;;;;;;;;;;;;-142.75;100.00;77137.25;5086965;28;20010;-69
2022/05/25 03:22:44;;;;;;;;;;;;;;;-142.75;100.00;77139.22;5091843;28;19916;-66
2022/05/25 03:25:10;;;;;;;;;;;;;;;-142.75;100.00;77143.16;5084947;28;19960;-69
2022/05/25 03:27:35;;;;;;;;;;;;;;;-142.75;100.00;77147.09;5071022;28;20357;-70
2022/05/25 03:30:00;;;;;;;;;;;;;;;-142.75;100.00;77160.88;5071246;28;20297;-69
2022/05/25 03:32:27;;;;;;;;;;;;;;;-142.75;100.00;77162.84;5071395;28;20389;-70
2022/05/25 03:34:52;;;;;;;;;;;;;;;-142.75;100.00;77158.91;5071386;28;20003;-67
2022/05/25 03:37:17;;;;;;;;;;;;;;;-142.75;100.00;77166.78;5071244;28;20007;-69
2022/05/25 03:39:42;;;;;;;;;;;;;;;-142.75;100.00;77174.66;5070931;28;19924;-69
2022/05/25 03:42:10;;;;;;;;;;;;;;;-142.75;100.00;77172.69;5070978;28;19917;-69
2022/05/25 03:44:35;;;;;;;;;;;;;;;-142.75;100.00;77194.34;5071177;28;20301;-69
2022/05/25 03:47:00;;;;;;;;;;;;;;;-142.75;100.00;77186.47;5070965;28;19917;-69
2022/05/25 03:49:26;;;;;;;;;;;;;;;-142.75;100.00;77184.50;5070118;28;19920;-69
2022/05/25 03:51:51;;;;;;;;;;;;;;;-142.75;100.00;77192.38;5070890;28;19927;-66
2022/05/25 03:54:16;;;;;;;;;;;;;;;-142.75;100.00;77192.38;5071307;28;19921;-69
2022/05/25 03:56:42;;;;;;;;;;;;;;;-142.75;100.00;77194.34;5070808;28;20392;-69
2022/05/25 03:59:07;;;;;;;;;;;;;;;-142.75;100.00;77202.22;5069653;28;20282;-70
2022/05/25 04:01:33;;;;;;;;;;;;;;;-142.75;100.00;77194.34;5070742;28;19916;-69
2022/05/25 04:03:59;;;;;;;;;;;;;;;-142.75;100.00;77196.31;5080302;22;19924;-67
2022/05/25 04:06:25;;;;;;;;;;;;;;;-142.75;100.00;77200.25;5069108;28;19928;-67
2022/05/25 04:08:50;;;;;;;;;;;;;;;-142.75;100.00;77184.50;5051601;28;19920;-67
2022/05/25 04:11:15;;;;;;;;;;;;;;;-142.75;100.00;77184.50;5070657;28;19917;-67
2022/05/25 04:13:40;;;;;;;;;;;;;;;-142.75;100.00;77194.34;5070470;28;19920;-67
2022/05/25 04:16:05;;;;;;;;;;;;;;;-142.75;100.00;77196.31;5070520;28;19944;-67
2022/05/25 04:18:31;;;;;;;;;;;;;;;-142.75;100.00;77188.44;5055704;28;19917;-67
2022/05/25 04:20:56;;;;;;;;;;;;;;;-142.75;100.00;77186.47;5051165;28;20488;-67
2022/05/25 04:23:24;;;;;;;;;;;;;;;-142.75;100.00;77180.56;5051489;28;19924;-67
2022/05/25 04:25:50;;;;;;;;;;;;;;;-142.75;100.00;77178.59;5050966;28;19917;-67
2022/05/25 04:28:15;;;;;;;;;;;;;;;-142.75;100.00;77172.69;5050856;28;19924;-67
2022/05/25 04:30:40;;;;;;;;;;;;;;;-142.75;100.00;77168.75;5051082;28;19917;-67
2022/05/25 04:33:05;;;;;;;;;;;;;;;-142.75;100.00;77168.75;5050930;28;19920;-67
2022/05/25 04:35:31;;;;;;;;;;;;;;;-142.75;100.00;77162.84;5051138;28;19924;-67
2022/05/25 04:37:56;;;;;;;;;;;;;;;-142.75;100.00;77166.78;5050578;28;19924;-67
2022/05/25 04:40:29;;;;;;;;;;;;;;;-142.75;100.00;77158.91;5050890;28;19924;-67
2022/05/25 04:42:56;;;;;;;;;;;;;;;-142.75;100.00;77164.81;5033009;28;19978;-67
2022/05/25 04:45:22;;;;;;;;;;;;;;;-142.75;100.00;77156.94;5069932;28;19924;-67
2022/05/25 04:47:47;;;;;;;;;;;;;;;-142.75;100.00;77168.75;5052822;28;19925;-67
2022/05/25 04:50:13;;;;;;;;;;;;;;;-142.75;100.00;77164.81;5070988;28;19916;-67
2022/05/25 04:52:39;;;;;;;;;;;;;;;-142.75;100.00;77151.03;5071112;28;20007;-67
2022/05/25 04:55:05;;;;;;;;;;;;;;;-142.75;100.00;77141.19;5063380;28;19955;-67
2022/05/25 04:57:30;;;;;;;;;;;;;;;-142.75;100.00;77121.50;5050943;28;19928;-67
2022/05/25 04:59:59;;;;;;;;;;;;;;;-142.75;100.00;77109.69;5050592;28;19917;-67
2022/05/25 05:02:24;;;;;;;;;;;;;;;-142.75;100.00;77101.81;5054804;28;20030;-67
2022/05/25 05:04:49;;;;;;;;;;;;;;;-142.75;100.00;77080.16;5054734;28;20049;-67
2022/05/25 05:07:15;;;;;;;;;;;;;;;-142.75;100.00;77066.38;5060219;28;19925;-67
2022/05/25 05:09:41;;;;;;;;;;;;;;;-142.75;100.00;77066.38;5053180;28;19916;-67
2022/05/25 05:12:07;;;;;;;;;;;;;;;-142.75;100.00;77058.50;5054776;28;19928;-67
2022/05/25 05:14:32;;;;;;;;;;;;;;;-142.75;100.00;77058.50;5060900;28;20302;-68
2022/05/25 05:16:58;;;;;;;;;;;;;;;-142.75;100.00;77060.47;5042049;28;19917;-67
2022/05/25 05:19:24;;;;;;;;;;;;;;;-142.75;100.00;77050.63;5060297;28;19917;-67
2022/05/25 05:21:50;;;;;;;;;;;;;;;-142.75;100.00;77034.88;5061367;28;19936;-66
2022/05/25 05:24:15;;;;;;;;;;;;;;;-142.75;100.00;77038.81;5066025;28;20329;-67
2022/05/25 05:26:40;;;;;;;;;;;;;;;-142.75;100.00;77023.06;5074504;28;20385;-67
2022/05/25 05:29:05;;;;;;;;;;;;;;;-142.75;100.00;77023.06;5055942;28;19997;-67
2022/05/25 05:31:31;;;;;;;;;;;;;;;-142.75;100.00;77017.16;5054263;28;20012;-67
2022/05/25 05:33:56;;;;;;;;;;;;;;;-142.75;100.00;77011.25;5054166;28;19924;-66
2022/05/25 05:36:24;;;;;;;;;;;;;;;-142.75;100.00;77015.19;5054223;28;19921;-66
2022/05/25 05:38:50;;;;;;;;;;;;;;;-142.75;100.00;77019.13;5055285;28;19920;-66
2022/05/25 05:41:16;;;;;;;;;;;;;;;-142.75;100.00;77015.19;5056212;28;19962;-67
2022/05/25 05:43:41;;;;;;;;;;;;;;;-142.75;100.00;77021.09;5073984;28;20019;-66
2022/05/25 05:46:07;;;;;;;;;;;;;;;-142.75;100.00;77021.09;5074204;28;20007;-66
2022/05/25 05:48:33;;;;;;;;;;;;;;;-142.75;100.00;77007.31;5055797;28;19916;-67
2022/05/25 05:50:58;;;;;;;;;;;;;;;-142.75;100.00;77007.31;5055996;28;20010;-67
2022/05/25 05:53:26;;;;;;;;;;;;;;;-142.75;100.00;76995.50;5055686;28;20350;-67
2022/05/25 05:55:51;;;;;;;;;;;;;;;-142.75;100.00;76975.81;5073906;28;20393;-67
2022/05/25 05:58:16;;;;;;;;;;;;;;;-142.75;100.00;76973.84;5073912;28;19931;-67
2022/05/25 06:00:42;;;;;;;;;;;;;;;-142.75;100.00;76983.69;5073707;28;20003;-67
2022/05/25 06:03:07;;;;;;;;;;;;;;;-142.75;100.00;76977.78;5073585;28;19916;-67
2022/05/25 06:05:33;;;;;;;;;;;;;;;-142.75;100.00;76997.47;5073646;28;19916;-67
2022/05/25 06:08:07;;;;;;;;;;;;;;;-142.75;100.00;76987.63;5073155;28;19916;-67
2022/05/25 06:10:32;;;;;;;;;;;;;;;-142.75;100.00;76971.88;5073746;28;19923;-67
2022/05/25 06:12:57;;;;;;;;;;;;;;;-142.75;100.00;76958.09;5072513;28;19925;-67
2022/05/25 06:20:50;;;;;;;;;;;;;;;-142.75;100.00;76932.50;5073463;28;19943;-67
2022/05/25 06:23:16;;;;;;;;;;;;;;;-142.75;100.00;76938.41;5073314;28;20374;-67
2022/05/25 06:25:41;;;;;;;;;;;;;;;-142.75;100.00;76928.56;5073191;28;20007;-67
2022/05/25 06:28:06;;;;;;;;;;;;;;;-142.75;100.00;76904.94;5073038;28;19924;-67
2022/05/25 06:30:31;;;;;;;;;;;;;;;-142.75;100.00;76897.06;5073020;28;19983;-67
2022/05/25 06:32:56;;;;;;;;;;;;;;;-142.75;100.00;76924.63;5065193;28;20462;-67
2022/05/25 06:35:22;;;;;;;;;;;;;;;-142.75;100.00;76948.25;5055338;28;19928;-68
2022/05/25 06:37:48;;;;;;;;;;;;;;;-142.75;100.00;76914.78;5052835;28;19923;-67
2022/05/25 06:40:13;;;;;;;;;;;;;;;-142.75;100.00;76875.41;5052798;28;19917;-67
2022/05/25 06:42:41;;;;;;;;;;;;;;;-142.75;100.00;76865.56;5051211;28;19927;-66
2022/05/25 06:45:07;;;;;;;;;;;;;;;-142.75;100.00;76865.56;5051674;28;19916;-67
2022/05/25 06:47:32;;;;;;;;;;;;;;;-142.75;100.00;76851.78;5051636;28;19940;-67
2022/05/25 06:49:57;;;;;;;;;;;;;;;-142.75;100.00;76830.13;5051674;28;20295;-67
2022/05/25 06:52:23;;;;;;;;;;;;;;;-142.75;100.00;76857.69;5051548;28;20297;-66
2022/05/25 06:54:51;;;;;;;;;;;;;;;-142.75;100.00;76857.69;5033999;28;19923;-67
2022/05/25 06:57:16;;;;;;;;;;;;;;;-142.75;100.00;76855.72;5033587;28;19917;-67
2022/05/25 06:59:41;;;;;;;;;;;;;;;-142.75;100.00;76867.53;5033591;28;20289;-67
2022/05/25 07:02:06;;;;;;;;;;;;;;;-142.75;100.00;76857.69;5051553;28;19967;-67
2022/05/25 07:04:33;;;;;;;;;;;;;;;-142.75;100.00;76853.75;5061346;28;20360;-67
2022/05/25 07:07:00;;;;;;;;;;;;;;;-142.75;100.00;76871.47;5071427;28;20405;-66
2022/05/25 07:09:25;;;;;;;;;;;;;;;-142.75;100.00;76885.25;5071198;28;19938;-67
2022/05/25 07:11:51;;;;;;;;;;;;;;;-142.75;100.00;76895.09;5070858;28;19972;-67
2022/05/25 07:14:16;;;;;;;;;;;;;;;-142.75;100.00;76897.06;5071438;28;20019;-67
2022/05/25 07:16:41;;;;;;;;;;;;;;;-142.75;100.00;76877.38;5053346;28;19916;-67
2022/05/25 07:19:06;;;;;;;;;;;;;;;-142.75;100.00;76877.38;5070968;28;19917;-66
2022/05/25 07:21:31;;;;;;;;;;;;;;;-142.75;100.00;76857.69;5071490;28;19917;-67
2022/05/25 07:23:57;;;;;;;;;;;;;;;-142.75;100.00;76830.13;5070544;28;19921;-67
2022/05/25 07:26:23;;;;;;;;;;;;;;;-142.75;100.00;76822.25;5070908;28;20002;-66
2022/05/25 07:28:51;;;;;;;;;;;;;;;-142.75;100.00;76800.63;5040716;28;19975;-66
2022/05/25 07:31:37;;;;;;;;;;;;;;;-142.75;100.00;76786.84;5059760;28;19917;-66
2022/05/25 07:34:11;;;;;;;;;;;;;;;-142.75;100.00;76769.13;5062535;28;20007;-66
2022/05/25 07:36:38;;;;;;;;;;;;;;;-142.75;100.00;76733.69;5070940;28;19924;-67
2022/05/25 07:39:05;;;;;;;;;;;;;;;-142.75;100.00;76704.16;5070558;28;19931;-66
2022/05/25 07:41:31;;;;;;;;;;;;;;;-142.75;100.00;76682.50;5070713;28;19927;-66
2022/05/25 07:43:57;;;;;;;;;;;;;;;-142.75;100.00;76668.72;5070664;28;19921;-67
2022/05/25 07:46:31;;;;;;;;;;;;;;;-142.75;100.00;76660.84;5052851;28;19973;-67
2022/05/25 07:48:56;;;;;;;;;;;;;;;-142.75;100.00;76627.38;5052510;28;19920;-67
2022/05/25 07:51:24;;;;;;;;;;;;;;;-142.75;100.00;76597.84;5070567;28;19970;-67
2022/05/25 07:53:58;;;;;;;;;;;;;;;-142.75;100.00;76599.81;5070658;28;19924;-67
2022/05/25 07:56:29;;;;;;;;;;;;;;;-142.75;100.00;76625.41;5070547;28;20002;-67
2022/05/25 07:58:54;;;;;;;;;;;;;;;-142.75;100.00;76621.47;5070475;28;19920;-67
2022/05/25 08:05:43;;;;;;;;;;;;;;;-142.75;100.00;76615.56;5070532;28;20014;-67
2022/05/25 08:06:50;;;;;;;;;;;;;;;-142.75;100.00;76554.53;5047777;28;19927;-67
2022/05/25 08:09:15;;;;;;;;;;;;;;;-142.75;100.00;76546.66;5050156;28;20298;-68
2022/05/25 08:11:40;;;;;;;;;;;;;;;-142.75;100.00;76554.53;5070136;28;19922;-67
2022/05/25 08:14:06;;;;;;;;;;;;;;;-142.75;100.00;76534.84;5070250;28;20015;-68
2022/05/25 08:16:31;;;;;;;;;;;;;;;-142.75;100.00;76499.44;5052243;28;19923;-67
2022/05/25 08:18:56;;;;;;;;;;;;;;;-142.75;100.00;76497.47;5070030;28;19916;-67
2022/05/25 08:21:21;;;;;;;;;;;;;;;-142.75;100.00;76501.41;5069722;28;20399;-67
2022/05/25 08:23:46;;;;;;;;;;;;;;;-142.75;100.00;76481.72;5070584;28;19916;-66
2022/05/25 08:26:11;;;;;;;;;;;;;;;-142.75;100.00;76475.81;5070956;28;19922;-66
2022/05/25 08:28:37;;;;;;;;;;;;;;;-142.75;100.00;76507.31;5070516;28;19916;-66
2022/05/25 08:31:02;;;;;;;;;;;;;;;-142.75;100.00;76523.06;5052856;28;19921;-66
2022/05/25 08:33:27;;;;;;;;;;;;;;;-142.75;100.00;76560.44;5070907;28;19959;-66
2022/05/25 08:35:52;;;;;;;;;;;;;;;-142.75;100.00;76588.00;5070485;28;19926;-66
2022/05/25 08:38:21;;;;;;;;;;;;;;;-142.75;100.00;76544.69;5052601;28;19917;-67
2022/05/25 08:40:47;;;;;;;;;;;;;;;-142.75;100.00;76501.41;5053090;28;19973;-66
2022/05/25 08:43:15;;;;;;;;;;;;;;;-142.75;100.00;76436.44;5070967;28;19916;-67
2022/05/25 08:45:42;;;;;;;;;;;;;;;-142.75;100.00;76389.19;5070873;28;19920;-68
2022/05/25 08:48:09;;;;;;;;;;;;;;;-142.75;100.00;76341.97;5052681;28;19916;-66
2022/05/25 08:50:35;;;;;;;;;;;;;;;-142.75;100.00;76326.22;5070829;28;20013;-67
2022/05/25 08:53:02;;;;;;;;;;;;;;;-142.75;100.00;76312.44;5070745;28;20011;-67
2022/05/25 08:55:56;;;;;;;;;;;;;;;-142.75;100.00;76298.66;5070938;28;19924;-68
2022/05/25 08:58:23;;;;;;;;;;;;;;;-142.75;100.00;76341.97;5070724;28;19921;-67
2022/05/25 09:00:50;;;;;;;;;;;;;;;-142.75;100.00;76351.81;5070732;28;19954;-66
2022/05/25 09:03:18;;;;;;;;;;;;;;;-142.75;100.00;76334.09;5070710;28;20033;-67
2022/05/25 09:05:53;;;;;;;;;;;;;;;-142.75;100.00;76312.44;5070857;28;19997;-67
2022/05/25 09:08:37;;;;;;;;;;;;;;;-142.75;100.00;76300.63;5070550;28;19921;-67
2022/05/25 09:11:06;;;;;;;;;;;;;;;-142.75;100.00;76310.47;5070614;28;19923;-67
2022/05/25 09:13:40;;;;;;;;;;;;;;;-142.75;100.00;76294.72;5070689;28;20298;-67
2022/05/25 09:16:15;;;;;;;;;;;;;;;-142.75;100.00;76208.09;5070592;28;19921;-67
2022/05/25 09:19:19;;;;;;;;;;;;;;;-142.75;100.00;76202.19;5070517;28;20343;-67
2022/05/25 09:21:52;;;;;;;;;;;;;;;-142.75;100.00;76162.84;4969567;28;19972;-67
2022/05/25 09:24:20;;;;;;;;;;;;;;;-142.75;100.00;76172.69;4969561;28;20053;-67
2022/05/25 09:26:45;;;;;;;;;;;;;;;-142.75;100.00;76255.34;5022412;28;20413;-67
2022/05/25 09:29:11;;;;;;;;;;;;;;;-142.75;100.00;76288.81;5070237;28;19917;-67
2022/05/25 09:31:41;;;;;;;;;;;;;;;-142.75;100.00;76304.56;5070504;28;19916;-67
2022/05/25 09:34:08;;;;;;;;;;;;;;;-142.75;100.00;76271.09;5069446;28;20401;-67
2022/05/25 09:36:38;;;;;;;;;;;;;;;-142.75;100.00;76261.25;5069948;28;20448;-67
2022/05/25 09:39:03;;;;;;;;;;;;;;;-142.75;100.00;76215.97;5061186;28;20374;-67
2022/05/25 09:41:31;;;;;;;;;;;;;;;-142.75;100.00;76229.75;5068918;28;19924;-68
2022/05/25 09:43:58;;;;;;;;;;;;;;;-142.75;100.00;76314.41;5062154;28;20322;-68
2022/05/25 09:46:27;;;;;;;;;;;;;;;-142.75;100.00;76284.88;5049224;28;19917;-67
2022/05/25 09:48:55;;;;;;;;;;;;;;;-142.75;100.00;76239.59;5051307;28;20011;-67
2022/05/25 09:51:35;;;;;;;;;;;;;;;-142.75;100.00;76278.97;5051716;28;19921;-67
2022/05/25 09:54:19;;;;;;;;;;;;;;;-142.75;100.00;76306.53;5052818;28;19924;-67
2022/05/25 09:56:53;;;;;;;;;;;;;;;-142.75;100.00;76349.81;5053047;28;19923;-67
2022/05/25 09:59:39;;;;;;;;;;;;;;;-142.75;100.00;76365.56;5052658;28;19921;-67
2022/05/25 10:02:21;;;;;;;;;;;;;;;-142.75;100.00;76365.56;5053276;28;20023;-68
2022/05/25 10:04:53;;;;;;;;;;;;;;;-142.75;100.00;76355.72;5076783;22;19962;-68
2022/05/25 10:07:37;;;;;;;;;;;;;;;-142.75;100.00;76347.84;5011110;28;19926;-69
2022/05/25 10:10:05;;;;;;;;;;;;;;;-142.75;100.00;76357.69;5011442;28;19928;-69
2022/05/25 10:12:40;;;;;;;;;;;;;;;-142.75;100.00;76359.66;5023883;28;19968;-68
2022/05/25 10:15:13;;;;;;;;;;;;;;;-142.75;100.00;76361.63;5029628;28;20027;-68
2022/05/25 10:17:40;;;;;;;;;;;;;;;-142.75;100.00;76338.03;5013396;28;20391;-69
2022/05/25 10:20:27;;;;;;;;;;;;;;;-142.75;100.00;76314.41;5013436;28;19929;-70
2022/05/25 10:23:22;;;;;;;;;;;;;;;-142.75;100.00;76263.22;5013474;28;19917;-69
2022/05/25 10:26:15;;;;;;;;;;;;;;;-142.75;100.00;76227.78;4993858;28;19922;-68
2022/05/25 10:28:45;;;;;;;;;;;;;;;-142.75;100.00;76247.47;5009464;28;19926;-70
2022/05/25 10:36:57;;;;;;;;;;;;;;;-142.75;100.00;76278.97;5013648;28;19980;-68
2022/05/25 10:39:28;;;;;;;;;;;;;;;-142.75;100.00;76196.31;5012864;28;19917;-68
2022/05/25 10:42:02;;;;;;;;;;;;;;;-142.75;100.00;76192.38;5013180;28;19922;-71
2022/05/25 10:44:30;;;;;;;;;;;;;;;-142.75;100.00;76135.28;5012876;28;19918;-69
2022/05/25 10:46:57;;;;;;;;;;;;;;;-142.75;99.46;76137.25;5012860;28;20435;-70
2022/05/25 10:49:26;;;;;;;;;;;;;;;-142.75;88.60;76129.38;5002629;28;19975;-70
2022/05/25 10:51:54;;;;;;;;;;;;;;;-142.75;96.21;76160.88;4994816;28;19972;-70
2022/05/25 10:57:26;;;;;;;;;;;;;;;-142.75;100.00;76141.19;5012815;28;19983;-69
2022/05/25 11:00:05;;;;;;;;;;;;;;;-142.75;98.40;76206.13;5011908;28;19925;-70
2022/05/25 11:02:49;;;;;;;;;;;;;;;-142.75;91.40;76200.25;5012781;28;20012;-69
2022/05/25 11:05:32;;;;;;;;;;;;;;;-142.75;89.06;76206.13;5012316;28;20402;-68
2022/05/25 11:08:06;;;;;;;;;;;;;;;-142.75;86.05;76217.94;5012498;28;19928;-71
2022/05/25 11:10:37;;;;;;;;;;;;;;;-142.75;82.34;76164.81;5012718;28;19918;-70
2022/05/25 11:13:02;;;;;;;;;;;;;;;-142.75;87.46;76109.69;5012605;28;20303;-69
2022/05/25 11:15:46;;;;;;;;;;;;;;;-142.75;83.65;76105.75;5011229;28;19918;-71
2022/05/25 11:18:22;;;;;;;;;;;;;;;-142.75;80.87;76070.34;5012241;28;19933;-70
2022/05/25 11:21:16;;;;;;;;;;;;;;;-142.75;80.22;76076.22;5011297;28;20015;-70
2022/05/25 11:23:41;;;;;;;;;;;;;;;-142.75;79.01;76005.38;5012606;28;19918;-70
2022/05/25 11:26:12;;;;;;;;;;;;;;;-142.75;77.10;76030.97;5010985;28;19924;-67
2022/05/25 11:28:50;;;;;;;;;;;;;;;-142.75;81.54;76023.09;5010340;28;19932;-69
2022/05/25 11:31:15;;;;;;;;;;;;;;;-142.75;79.86;76019.16;5011105;28;19929;-68
2022/05/25 11:33:51;;;;;;;;;;;;;;;-142.75;81.67;76040.81;5011979;28;19922;-70
2022/05/25 11:36:26;;;;;;;;;;;;;;;-142.75;82.56;76097.88;5012052;28;19921;-69
2022/05/25 11:38:55;;;;;;;;;;;;;;;-142.75;84.23;76180.56;5010628;28;19921;-71
2022/05/25 11:41:21;;;;;;;;;;;;;;;-142.75;83.84;76206.13;5010260;28;19925;-70
2022/05/25 11:44:16;;;;;;;;;;;;;;;-142.75;87.04;76263.22;5011933;28;20393;-70
2022/05/25 11:46:48;;;;;;;;;;;;;;;-142.75;86.41;76310.47;4997911;28;19917;-70
2022/05/25 11:49:15;;;;;;;;;;;;;;;-142.75;91.19;76341.97;5010275;28;19991;-69
2022/05/25 11:52:10;;;;;;;;;;;;;;;-142.75;89.73;76347.84;5012010;28;19932;-69
2022/05/25 11:54:54;;;;;;;;;;;;;;;-142.75;93.83;76278.97;4998609;28;19921;-69
2022/05/25 11:57:36;;;;;;;;;;;;;;;-142.75;88.48;76227.78;5006311;28;21705;-70
2022/05/25 12:00:05;;;;;;;;;;;;;;;-142.75;88.48;76180.56;4993789;28;20037;-70
2022/05/25 12:02:30;;;;;;;;;;;;;;;-142.75;88.32;76160.88;4992020;28;19995;-70
2022/05/25 12:05:14;;;;;;;;;;;;;;;-142.75;88.21;76141.19;4991108;28;19918;-70
2022/05/25 12:08:02;;;;;;;;;;;;;;;-142.75;87.28;76107.72;4992349;28;20415;-70
2022/05/25 12:10:30;;;;;;;;;;;;;;;-142.75;93.91;76078.19;5010149;28;19918;-70
2022/05/25 12:12:55;;;;;;;;;;;;;;;-142.75;91.46;76101.81;5011608;28;19922;-70
2022/05/25 12:15:22;;;;;;;;;;;;;;;-142.75;89.47;76129.38;5011181;28;20377;-70
2022/05/25 12:18:14;;;;;;;;;;;;;;;-142.75;89.39;76149.06;5011272;28;19925;-70
2022/05/25 12:21:05;;;;;;;;;;;;;;;-142.75;91.25;76166.78;4986230;28;20276;-69
2022/05/25 12:23:40;;;;;;;;;;;;;;;-142.75;92.03;76215.97;5008618;28;19925;-70
2022/05/25 12:26:22;;;;;;;;;;;;;;;-142.75;97.55;76208.09;5010525;28;19975;-70
2022/05/25 12:28:47;;;;;;;;;;;;;;;-142.75;93.35;76212.03;5008024;28;19936;-70
2022/05/25 12:31:17;;;;;;;;;;;;;;;-142.75;89.62;76255.34;5009934;28;19922;-69
2022/05/25 12:33:45;;;;;;;;;;;;;;;-142.75;91.17;76271.09;5010073;28;19926;-68
2022/05/25 12:36:11;;;;;;;;;;;;;;;-142.75;94.49;76282.91;5009729;28;19925;-71
2022/05/25 12:38:38;;;;;;;;;;;;;;;-142.75;98.26;76312.44;5011204;28;19918;-70
2022/05/25 12:41:21;;;;;;;;;;;;;;;-142.75;100.00;76310.47;5011316;28;19967;-69
2022/05/25 12:43:47;;;;;;;;;;;;;;;-142.75;100.00;76302.59;5011421;28;19917;-69
2022/05/25 12:49:01;;;;;;;;;;;;;;;-142.75;100.00;76302.59;5010958;28;19944;-68
2022/05/25 12:51:32;;;;;;;;;;;;;;;-142.75;100.00;76310.47;5011282;28;19929;-69